sensor_id;sensor_type;location;lat;lon;timestamp;P1;durP1;ratioP1;P2;durP2;ratioP2
4317;SDS011;2172;53.576;9.934;2023-07-31T00:00:30;7.67;;;3.37;;
4317;SDS011;2172;53.576;9.934;2023-07-31T00:02:58;9.33;;;3.40;;
4317;SDS011;2172;53.576;9.934;2023-07-31T00:05:26;8.13;;;3.50;;
4317;SDS011;2172;53.576;9.934;2023-07-31T00:07:54;6.00;;;3.30;;
4317;SDS011;2172;53.576;9.934;2023-07-31T00:10:22;7.30;;;3.60;;
4317;SDS011;2172;53.576;9.934;2023-07-31T00:12:49;6.00;;;3.10;;
4317;SDS011;2172;53.576;9.934;2023-07-31T00:15:17;5.30;;;3.43;;
4317;SDS011;2172;53.576;9.934;2023-07-31T00:17:45;6.77;;;3.40;;
4317;SDS011;2172;53.576;9.934;2023-07-31T00:20:12;11.37;;;3.67;;
4317;SDS011;2172;53.576;9.934;2023-07-31T00:22:41;12.27;;;3.10;;
4317;SDS011;2172;53.576;9.934;2023-07-31T00:25:09;6.57;;;3.23;;
4317;SDS011;2172;53.576;9.934;2023-07-31T00:27:37;7.97;;;3.90;;
4317;SDS011;2172;53.576;9.934;2023-07-31T00:30:04;7.43;;;3.60;;
4317;SDS011;2172;53.576;9.934;2023-07-31T00:32:33;13.27;;;3.57;;
4317;SDS011;2172;53.576;9.934;2023-07-31T00:35:00;7.37;;;3.07;;
4317;SDS011;2172;53.576;9.934;2023-07-31T00:37:30;5.57;;;3.13;;
4317;SDS011;2172;53.576;9.934;2023-07-31T00:39:59;7.80;;;3.10;;
4317;SDS011;2172;53.576;9.934;2023-07-31T00:42:29;6.43;;;3.33;;
4317;SDS011;2172;53.576;9.934;2023-07-31T00:44:56;11.20;;;3.37;;
4317;SDS011;2172;53.576;9.934;2023-07-31T00:47:24;6.30;;;2.97;;
4317;SDS011;2172;53.576;9.934;2023-07-31T00:49:52;6.67;;;3.37;;
4317;SDS011;2172;53.576;9.934;2023-07-31T00:52:19;5.10;;;3.20;;
4317;SDS011;2172;53.576;9.934;2023-07-31T00:54:48;7.57;;;3.43;;
4317;SDS011;2172;53.576;9.934;2023-07-31T00:57:17;4.47;;;3.13;;
4317;SDS011;2172;53.576;9.934;2023-07-31T00:59:45;8.33;;;3.43;;
4317;SDS011;2172;53.576;9.934;2023-07-31T01:02:14;5.57;;;3.00;;
4317;SDS011;2172;53.576;9.934;2023-07-31T01:04:42;6.30;;;3.00;;
4317;SDS011;2172;53.576;9.934;2023-07-31T01:07:11;7.03;;;3.20;;
4317;SDS011;2172;53.576;9.934;2023-07-31T01:09:43;6.73;;;3.40;;
4317;SDS011;2172;53.576;9.934;2023-07-31T01:12:14;6.13;;;3.80;;
4317;SDS011;2172;53.576;9.934;2023-07-31T01:14:50;6.33;;;3.30;;
4317;SDS011;2172;53.576;9.934;2023-07-31T01:17:19;9.30;;;3.40;;
4317;SDS011;2172;53.576;9.934;2023-07-31T01:19:46;4.70;;;3.30;;
4317;SDS011;2172;53.576;9.934;2023-07-31T01:22:23;7.60;;;4.17;;
4317;SDS011;2172;53.576;9.934;2023-07-31T01:25:00;8.87;;;3.93;;
4317;SDS011;2172;53.576;9.934;2023-07-31T01:27:41;7.63;;;3.50;;
4317;SDS011;2172;53.576;9.934;2023-07-31T01:30:15;4.73;;;3.40;;
4317;SDS011;2172;53.576;9.934;2023-07-31T01:32:44;6.20;;;3.53;;
4317;SDS011;2172;53.576;9.934;2023-07-31T01:35:13;4.00;;;3.40;;
4317;SDS011;2172;53.576;9.934;2023-07-31T01:37:41;9.07;;;3.77;;
4317;SDS011;2172;53.576;9.934;2023-07-31T01:40:09;11.03;;;4.03;;
4317;SDS011;2172;53.576;9.934;2023-07-31T01:42:36;8.73;;;4.00;;
4317;SDS011;2172;53.576;9.934;2023-07-31T01:45:06;9.20;;;3.93;;
4317;SDS011;2172;53.576;9.934;2023-07-31T01:47:34;5.60;;;4.50;;
4317;SDS011;2172;53.576;9.934;2023-07-31T01:50:02;7.50;;;4.17;;
4317;SDS011;2172;53.576;9.934;2023-07-31T01:52:30;8.47;;;4.40;;
4317;SDS011;2172;53.576;9.934;2023-07-31T01:54:58;5.90;;;4.00;;
4317;SDS011;2172;53.576;9.934;2023-07-31T01:57:25;6.07;;;4.03;;
4317;SDS011;2172;53.576;9.934;2023-07-31T01:59:54;6.90;;;4.17;;
4317;SDS011;2172;53.576;9.934;2023-07-31T02:02:23;7.83;;;4.10;;
4317;SDS011;2172;53.576;9.934;2023-07-31T02:04:50;10.93;;;4.67;;
4317;SDS011;2172;53.576;9.934;2023-07-31T02:07:18;8.17;;;4.30;;
4317;SDS011;2172;53.576;9.934;2023-07-31T02:09:45;6.10;;;3.77;;
4317;SDS011;2172;53.576;9.934;2023-07-31T02:12:13;11.83;;;4.90;;
4317;SDS011;2172;53.576;9.934;2023-07-31T02:14:41;5.30;;;3.90;;
4317;SDS011;2172;53.576;9.934;2023-07-31T02:17:11;9.03;;;4.10;;
4317;SDS011;2172;53.576;9.934;2023-07-31T02:19:38;8.37;;;3.77;;
4317;SDS011;2172;53.576;9.934;2023-07-31T02:22:06;11.10;;;4.47;;
4317;SDS011;2172;53.576;9.934;2023-07-31T02:24:34;5.97;;;4.00;;
4317;SDS011;2172;53.576;9.934;2023-07-31T02:27:01;6.90;;;4.20;;
4317;SDS011;2172;53.576;9.934;2023-07-31T02:29:29;6.47;;;4.10;;
4317;SDS011;2172;53.576;9.934;2023-07-31T02:31:56;8.40;;;4.50;;
4317;SDS011;2172;53.576;9.934;2023-07-31T02:34:26;6.40;;;4.27;;
4317;SDS011;2172;53.576;9.934;2023-07-31T02:36:53;7.83;;;4.47;;
4317;SDS011;2172;53.576;9.934;2023-07-31T02:39:21;7.13;;;4.43;;
4317;SDS011;2172;53.576;9.934;2023-07-31T02:41:48;9.20;;;4.80;;
4317;SDS011;2172;53.576;9.934;2023-07-31T02:44:16;6.90;;;4.90;;
4317;SDS011;2172;53.576;9.934;2023-07-31T02:46:44;9.30;;;4.70;;
4317;SDS011;2172;53.576;9.934;2023-07-31T02:49:11;7.73;;;4.20;;
4317;SDS011;2172;53.576;9.934;2023-07-31T02:51:40;9.10;;;4.63;;
4317;SDS011;2172;53.576;9.934;2023-07-31T02:54:07;8.57;;;4.57;;
4317;SDS011;2172;53.576;9.934;2023-07-31T02:56:35;7.13;;;4.70;;
4317;SDS011;2172;53.576;9.934;2023-07-31T02:59:02;8.33;;;5.30;;
4317;SDS011;2172;53.576;9.934;2023-07-31T03:01:30;5.23;;;4.17;;
4317;SDS011;2172;53.576;9.934;2023-07-31T03:03:58;8.27;;;4.43;;
4317;SDS011;2172;53.576;9.934;2023-07-31T03:06:25;10.57;;;4.90;;
4317;SDS011;2172;53.576;9.934;2023-07-31T03:08:54;6.10;;;4.60;;
4317;SDS011;2172;53.576;9.934;2023-07-31T03:11:22;5.80;;;4.50;;
4317;SDS011;2172;53.576;9.934;2023-07-31T03:13:49;7.93;;;4.20;;
4317;SDS011;2172;53.576;9.934;2023-07-31T03:16:17;9.83;;;5.10;;
4317;SDS011;2172;53.576;9.934;2023-07-31T03:18:44;6.63;;;4.63;;
4317;SDS011;2172;53.576;9.934;2023-07-31T03:21:12;11.30;;;4.70;;
4317;SDS011;2172;53.576;9.934;2023-07-31T03:23:40;6.83;;;4.70;;
4317;SDS011;2172;53.576;9.934;2023-07-31T03:26:10;8.30;;;5.43;;
4317;SDS011;2172;53.576;9.934;2023-07-31T03:28:37;7.70;;;4.30;;
4317;SDS011;2172;53.576;9.934;2023-07-31T03:31:05;5.80;;;4.50;;
4317;SDS011;2172;53.576;9.934;2023-07-31T03:33:33;6.60;;;5.00;;
4317;SDS011;2172;53.576;9.934;2023-07-31T03:36:01;6.23;;;4.67;;
4317;SDS011;2172;53.576;9.934;2023-07-31T03:38:29;6.77;;;4.47;;
4317;SDS011;2172;53.576;9.934;2023-07-31T03:40:57;5.00;;;4.10;;
4317;SDS011;2172;53.576;9.934;2023-07-31T03:43:26;6.17;;;3.80;;
4317;SDS011;2172;53.576;9.934;2023-07-31T03:45:54;6.23;;;4.43;;
4317;SDS011;2172;53.576;9.934;2023-07-31T03:48:23;6.57;;;4.90;;
4317;SDS011;2172;53.576;9.934;2023-07-31T03:50:51;4.60;;;3.90;;
4317;SDS011;2172;53.576;9.934;2023-07-31T03:53:19;5.60;;;3.77;;
4317;SDS011;2172;53.576;9.934;2023-07-31T03:55:46;7.63;;;4.60;;
4317;SDS011;2172;53.576;9.934;2023-07-31T03:58:14;7.70;;;5.03;;
4317;SDS011;2172;53.576;9.934;2023-07-31T04:00:43;8.70;;;4.90;;
4317;SDS011;2172;53.576;9.934;2023-07-31T04:03:11;7.03;;;4.37;;
4317;SDS011;2172;53.576;9.934;2023-07-31T04:05:39;5.63;;;4.33;;
4317;SDS011;2172;53.576;9.934;2023-07-31T04:08:06;7.00;;;4.53;;
4317;SDS011;2172;53.576;9.934;2023-07-31T04:10:34;6.23;;;4.43;;
4317;SDS011;2172;53.576;9.934;2023-07-31T04:13:01;5.87;;;4.40;;
4317;SDS011;2172;53.576;9.934;2023-07-31T04:15:29;5.37;;;4.33;;
4317;SDS011;2172;53.576;9.934;2023-07-31T04:17:58;5.37;;;4.77;;
4317;SDS011;2172;53.576;9.934;2023-07-31T04:20:25;5.93;;;4.27;;
4317;SDS011;2172;53.576;9.934;2023-07-31T04:23:11;4.77;;;4.27;;
4317;SDS011;2172;53.576;9.934;2023-07-31T04:25:39;5.57;;;4.70;;
4317;SDS011;2172;53.576;9.934;2023-07-31T04:28:07;6.50;;;3.60;;
4317;SDS011;2172;53.576;9.934;2023-07-31T04:30:34;6.23;;;4.20;;
4317;SDS011;2172;53.576;9.934;2023-07-31T04:33:03;6.87;;;5.10;;
4317;SDS011;2172;53.576;9.934;2023-07-31T04:35:30;4.47;;;4.07;;
4317;SDS011;2172;53.576;9.934;2023-07-31T04:37:58;5.30;;;3.90;;
4317;SDS011;2172;53.576;9.934;2023-07-31T04:40:26;6.00;;;3.87;;
4317;SDS011;2172;53.576;9.934;2023-07-31T04:42:53;4.80;;;4.27;;
4317;SDS011;2172;53.576;9.934;2023-07-31T04:45:21;4.10;;;3.70;;
4317;SDS011;2172;53.576;9.934;2023-07-31T04:47:48;4.73;;;4.33;;
4317;SDS011;2172;53.576;9.934;2023-07-31T04:50:17;6.03;;;4.10;;
4317;SDS011;2172;53.576;9.934;2023-07-31T04:52:44;5.43;;;4.10;;
4317;SDS011;2172;53.576;9.934;2023-07-31T04:55:12;7.00;;;4.10;;
4317;SDS011;2172;53.576;9.934;2023-07-31T04:57:39;5.03;;;3.80;;
4317;SDS011;2172;53.576;9.934;2023-07-31T05:00:07;3.93;;;3.50;;
4317;SDS011;2172;53.576;9.934;2023-07-31T05:02:35;4.60;;;3.83;;
4317;SDS011;2172;53.576;9.934;2023-07-31T05:05:03;6.73;;;4.20;;
4317;SDS011;2172;53.576;9.934;2023-07-31T05:07:32;6.87;;;3.67;;
4317;SDS011;2172;53.576;9.934;2023-07-31T05:10:00;7.20;;;3.97;;
4317;SDS011;2172;53.576;9.934;2023-07-31T05:12:27;4.57;;;3.67;;
4317;SDS011;2172;53.576;9.934;2023-07-31T05:15:13;4.23;;;3.83;;
4317;SDS011;2172;53.576;9.934;2023-07-31T05:17:41;5.03;;;3.40;;
4317;SDS011;2172;53.576;9.934;2023-07-31T05:20:08;6.50;;;3.67;;
4317;SDS011;2172;53.576;9.934;2023-07-31T05:22:38;4.47;;;3.40;;
4317;SDS011;2172;53.576;9.934;2023-07-31T05:25:05;6.27;;;3.50;;
4317;SDS011;2172;53.576;9.934;2023-07-31T05:27:34;5.93;;;4.03;;
4317;SDS011;2172;53.576;9.934;2023-07-31T05:30:01;4.43;;;3.80;;
4317;SDS011;2172;53.576;9.934;2023-07-31T05:32:29;4.00;;;3.60;;
4317;SDS011;2172;53.576;9.934;2023-07-31T05:34:57;4.43;;;3.60;;
4317;SDS011;2172;53.576;9.934;2023-07-31T05:37:24;4.77;;;4.10;;
4317;SDS011;2172;53.576;9.934;2023-07-31T05:39:53;4.17;;;3.77;;
4317;SDS011;2172;53.576;9.934;2023-07-31T05:42:21;4.63;;;3.90;;
4317;SDS011;2172;53.576;9.934;2023-07-31T05:44:49;4.27;;;3.97;;
4317;SDS011;2172;53.576;9.934;2023-07-31T05:47:16;4.00;;;3.60;;
4317;SDS011;2172;53.576;9.934;2023-07-31T05:49:43;3.90;;;3.50;;
4317;SDS011;2172;53.576;9.934;2023-07-31T05:52:11;4.37;;;3.97;;
4317;SDS011;2172;53.576;9.934;2023-07-31T05:54:38;5.27;;;3.80;;
4317;SDS011;2172;53.576;9.934;2023-07-31T05:57:07;4.10;;;3.70;;
4317;SDS011;2172;53.576;9.934;2023-07-31T05:59:35;4.77;;;4.37;;
4317;SDS011;2172;53.576;9.934;2023-07-31T06:02:03;4.40;;;4.00;;
4317;SDS011;2172;53.576;9.934;2023-07-31T06:04:30;4.83;;;4.40;;
4317;SDS011;2172;53.576;9.934;2023-07-31T06:06:58;5.30;;;4.80;;
4317;SDS011;2172;53.576;9.934;2023-07-31T06:09:26;4.83;;;4.33;;
4317;SDS011;2172;53.576;9.934;2023-07-31T06:11:53;8.93;;;4.90;;
4317;SDS011;2172;53.576;9.934;2023-07-31T06:14:23;5.40;;;4.90;;
4317;SDS011;2172;53.576;9.934;2023-07-31T06:16:50;4.83;;;4.40;;
4317;SDS011;2172;53.576;9.934;2023-07-31T06:19:18;5.00;;;4.33;;
4317;SDS011;2172;53.576;9.934;2023-07-31T06:21:45;6.20;;;5.23;;
4317;SDS011;2172;53.576;9.934;2023-07-31T06:24:13;6.87;;;4.73;;
4317;SDS011;2172;53.576;9.934;2023-07-31T06:26:44;5.00;;;4.60;;
4317;SDS011;2172;53.576;9.934;2023-07-31T06:29:11;5.13;;;4.63;;
4317;SDS011;2172;53.576;9.934;2023-07-31T06:31:41;4.87;;;4.47;;
4317;SDS011;2172;53.576;9.934;2023-07-31T06:34:09;4.97;;;4.47;;
4317;SDS011;2172;53.576;9.934;2023-07-31T06:36:36;4.60;;;4.27;;
4317;SDS011;2172;53.576;9.934;2023-07-31T06:39:04;5.60;;;5.03;;
4317;SDS011;2172;53.576;9.934;2023-07-31T06:41:31;4.33;;;4.00;;
4317;SDS011;2172;53.576;9.934;2023-07-31T06:44:04;4.80;;;4.30;;
4317;SDS011;2172;53.576;9.934;2023-07-31T06:46:31;4.73;;;3.97;;
4317;SDS011;2172;53.576;9.934;2023-07-31T06:49:00;6.40;;;5.00;;
4317;SDS011;2172;53.576;9.934;2023-07-31T06:51:27;5.27;;;4.83;;
4317;SDS011;2172;53.576;9.934;2023-07-31T06:53:56;4.47;;;4.07;;
4317;SDS011;2172;53.576;9.934;2023-07-31T06:56:24;5.20;;;4.70;;
4317;SDS011;2172;53.576;9.934;2023-07-31T06:58:52;4.80;;;4.30;;
4317;SDS011;2172;53.576;9.934;2023-07-31T07:01:21;5.10;;;4.60;;
4317;SDS011;2172;53.576;9.934;2023-07-31T07:03:48;5.00;;;4.50;;
4317;SDS011;2172;53.576;9.934;2023-07-31T07:06:18;6.87;;;4.70;;
4317;SDS011;2172;53.576;9.934;2023-07-31T07:08:45;5.53;;;5.03;;
4317;SDS011;2172;53.576;9.934;2023-07-31T07:11:13;5.53;;;5.03;;
4317;SDS011;2172;53.576;9.934;2023-07-31T07:13:40;5.20;;;4.70;;
4317;SDS011;2172;53.576;9.934;2023-07-31T07:16:08;6.10;;;4.90;;
4317;SDS011;2172;53.576;9.934;2023-07-31T07:18:36;4.57;;;4.17;;
4317;SDS011;2172;53.576;9.934;2023-07-31T07:21:03;4.50;;;4.10;;
4317;SDS011;2172;53.576;9.934;2023-07-31T07:23:32;4.03;;;3.73;;
4317;SDS011;2172;53.576;9.934;2023-07-31T07:26:00;4.07;;;3.67;;
4317;SDS011;2172;53.576;9.934;2023-07-31T07:28:27;4.33;;;3.90;;
4317;SDS011;2172;53.576;9.934;2023-07-31T07:30:55;4.53;;;4.13;;
4317;SDS011;2172;53.576;9.934;2023-07-31T07:33:23;4.23;;;3.83;;
4317;SDS011;2172;53.576;9.934;2023-07-31T07:35:51;4.60;;;4.20;;
4317;SDS011;2172;53.576;9.934;2023-07-31T07:38:18;3.77;;;3.47;;
4317;SDS011;2172;53.576;9.934;2023-07-31T07:40:48;3.80;;;3.50;;
4317;SDS011;2172;53.576;9.934;2023-07-31T07:43:15;3.73;;;3.50;;
4317;SDS011;2172;53.576;9.934;2023-07-31T07:45:43;3.53;;;3.23;;
4317;SDS011;2172;53.576;9.934;2023-07-31T07:48:10;3.97;;;3.67;;
4317;SDS011;2172;53.576;9.934;2023-07-31T07:50:38;3.83;;;3.53;;
4317;SDS011;2172;53.576;9.934;2023-07-31T07:53:06;4.87;;;4.47;;
4317;SDS011;2172;53.576;9.934;2023-07-31T07:55:33;4.30;;;3.90;;
4317;SDS011;2172;53.576;9.934;2023-07-31T07:58:03;4.70;;;4.30;;
4317;SDS011;2172;53.576;9.934;2023-07-31T08:00:30;4.57;;;4.27;;
4317;SDS011;2172;53.576;9.934;2023-07-31T08:02:58;4.53;;;4.23;;
4317;SDS011;2172;53.576;9.934;2023-07-31T08:05:25;6.00;;;4.10;;
4317;SDS011;2172;53.576;9.934;2023-07-31T08:07:53;4.37;;;4.00;;
4317;SDS011;2172;53.576;9.934;2023-07-31T08:10:21;4.57;;;4.17;;
4317;SDS011;2172;53.576;9.934;2023-07-31T08:12:49;4.53;;;4.20;;
4317;SDS011;2172;53.576;9.934;2023-07-31T08:15:18;8.63;;;7.73;;
4317;SDS011;2172;53.576;9.934;2023-07-31T08:17:45;5.17;;;4.63;;
4317;SDS011;2172;53.576;9.934;2023-07-31T08:20:13;3.97;;;3.67;;
4317;SDS011;2172;53.576;9.934;2023-07-31T08:22:40;4.40;;;3.67;;
4317;SDS011;2172;53.576;9.934;2023-07-31T08:25:27;3.83;;;3.53;;
4317;SDS011;2172;53.576;9.934;2023-07-31T08:27:55;3.63;;;3.33;;
4317;SDS011;2172;53.576;9.934;2023-07-31T08:30:23;3.50;;;3.20;;
4317;SDS011;2172;53.576;9.934;2023-07-31T08:33:13;3.50;;;2.87;;
4317;SDS011;2172;53.576;9.934;2023-07-31T08:35:40;2.90;;;2.60;;
4317;SDS011;2172;53.576;9.934;2023-07-31T08:38:08;7.13;;;6.50;;
4317;SDS011;2172;53.576;9.934;2023-07-31T08:40:35;11.80;;;10.47;;
4317;SDS011;2172;53.576;9.934;2023-07-31T08:43:03;4.00;;;3.67;;
4317;SDS011;2172;53.576;9.934;2023-07-31T08:45:33;3.10;;;2.80;;
4317;SDS011;2172;53.576;9.934;2023-07-31T08:48:01;4.13;;;3.83;;
4317;SDS011;2172;53.576;9.934;2023-07-31T08:50:29;2.90;;;2.60;;
4317;SDS011;2172;53.576;9.934;2023-07-31T08:53:15;2.90;;;2.70;;
4317;SDS011;2172;53.576;9.934;2023-07-31T08:55:43;3.13;;;2.47;;
4317;SDS011;2172;53.576;9.934;2023-07-31T08:58:12;4.80;;;2.37;;
4317;SDS011;2172;53.576;9.934;2023-07-31T09:00:42;3.53;;;2.70;;
4317;SDS011;2172;53.576;9.934;2023-07-31T09:03:12;4.13;;;3.13;;
4317;SDS011;2172;53.576;9.934;2023-07-31T09:05:42;2.90;;;2.60;;
4317;SDS011;2172;53.576;9.934;2023-07-31T09:08:11;3.10;;;2.77;;
4317;SDS011;2172;53.576;9.934;2023-07-31T09:10:40;2.90;;;2.53;;
4317;SDS011;2172;53.576;9.934;2023-07-31T09:13:08;2.60;;;1.90;;
4317;SDS011;2172;53.576;9.934;2023-07-31T09:15:36;2.20;;;1.80;;
4317;SDS011;2172;53.576;9.934;2023-07-31T09:18:06;2.00;;;1.80;;
4317;SDS011;2172;53.576;9.934;2023-07-31T09:20:34;3.87;;;1.97;;
4317;SDS011;2172;53.576;9.934;2023-07-31T09:23:06;2.80;;;2.30;;
4317;SDS011;2172;53.576;9.934;2023-07-31T09:25:35;2.30;;;2.07;;
4317;SDS011;2172;53.576;9.934;2023-07-31T09:28:03;2.80;;;2.13;;
4317;SDS011;2172;53.576;9.934;2023-07-31T09:30:32;3.10;;;2.10;;
4317;SDS011;2172;53.576;9.934;2023-07-31T09:33:13;2.43;;;2.23;;
4317;SDS011;2172;53.576;9.934;2023-07-31T09:35:41;3.13;;;2.47;;
4317;SDS011;2172;53.576;9.934;2023-07-31T09:38:10;2.33;;;2.10;;
4317;SDS011;2172;53.576;9.934;2023-07-31T09:40:39;2.07;;;1.87;;
4317;SDS011;2172;53.576;9.934;2023-07-31T09:43:08;2.37;;;2.13;;
4317;SDS011;2172;53.576;9.934;2023-07-31T09:45:37;2.20;;;2.00;;
4317;SDS011;2172;53.576;9.934;2023-07-31T09:48:07;3.40;;;2.40;;
4317;SDS011;2172;53.576;9.934;2023-07-31T09:50:37;2.03;;;1.83;;
4317;SDS011;2172;53.576;9.934;2023-07-31T09:53:06;2.03;;;1.50;;
4317;SDS011;2172;53.576;9.934;2023-07-31T09:55:34;3.00;;;1.47;;
4317;SDS011;2172;53.576;9.934;2023-07-31T09:58:03;1.97;;;1.50;;
4317;SDS011;2172;53.576;9.934;2023-07-31T10:00:31;2.67;;;1.43;;
4317;SDS011;2172;53.576;9.934;2023-07-31T10:03:00;1.70;;;1.60;;
4317;SDS011;2172;53.576;9.934;2023-07-31T10:05:31;2.23;;;1.70;;
4317;SDS011;2172;53.576;9.934;2023-07-31T10:08:02;2.20;;;1.70;;
4317;SDS011;2172;53.576;9.934;2023-07-31T10:10:30;1.93;;;1.60;;
4317;SDS011;2172;53.576;9.934;2023-07-31T10:12:58;1.90;;;1.60;;
4317;SDS011;2172;53.576;9.934;2023-07-31T10:15:26;2.10;;;1.90;;
4317;SDS011;2172;53.576;9.934;2023-07-31T10:17:54;2.70;;;1.67;;
4317;SDS011;2172;53.576;9.934;2023-07-31T10:20:22;4.63;;;1.90;;
4317;SDS011;2172;53.576;9.934;2023-07-31T10:22:51;3.10;;;1.50;;
4317;SDS011;2172;53.576;9.934;2023-07-31T10:25:20;3.10;;;1.20;;
4317;SDS011;2172;53.576;9.934;2023-07-31T10:27:49;2.00;;;1.27;;
4317;SDS011;2172;53.576;9.934;2023-07-31T10:30:18;1.60;;;1.20;;
4317;SDS011;2172;53.576;9.934;2023-07-31T10:32:49;1.80;;;1.40;;
4317;SDS011;2172;53.576;9.934;2023-07-31T10:35:18;1.87;;;1.30;;
4317;SDS011;2172;53.576;9.934;2023-07-31T10:37:47;2.20;;;1.30;;
4317;SDS011;2172;53.576;9.934;2023-07-31T10:40:16;1.60;;;1.20;;
4317;SDS011;2172;53.576;9.934;2023-07-31T10:42:47;1.70;;;1.20;;
4317;SDS011;2172;53.576;9.934;2023-07-31T10:45:23;3.00;;;1.10;;
4317;SDS011;2172;53.576;9.934;2023-07-31T10:47:57;5.80;;;4.27;;
4317;SDS011;2172;53.576;9.934;2023-07-31T10:50:25;9.73;;;8.37;;
4317;SDS011;2172;53.576;9.934;2023-07-31T10:52:53;1.83;;;1.13;;
4317;SDS011;2172;53.576;9.934;2023-07-31T10:55:24;2.00;;;1.80;;
4317;SDS011;2172;53.576;9.934;2023-07-31T10:57:55;1.97;;;1.10;;
4317;SDS011;2172;53.576;9.934;2023-07-31T11:00:24;3.07;;;1.53;;
4317;SDS011;2172;53.576;9.934;2023-07-31T11:03:00;2.17;;;1.40;;
4317;SDS011;2172;53.576;9.934;2023-07-31T11:05:45;2.30;;;1.30;;
4317;SDS011;2172;53.576;9.934;2023-07-31T11:08:15;2.50;;;1.30;;
4317;SDS011;2172;53.576;9.934;2023-07-31T11:10:44;1.30;;;1.20;;
4317;SDS011;2172;53.576;9.934;2023-07-31T11:13:14;1.60;;;1.47;;
4317;SDS011;2172;53.576;9.934;2023-07-31T11:15:42;1.97;;;1.77;;
4317;SDS011;2172;53.576;9.934;2023-07-31T11:18:09;2.53;;;2.20;;
4317;SDS011;2172;53.576;9.934;2023-07-31T11:20:37;2.23;;;1.80;;
4317;SDS011;2172;53.576;9.934;2023-07-31T11:23:06;4.03;;;1.77;;
4317;SDS011;2172;53.576;9.934;2023-07-31T11:25:34;1.70;;;1.30;;
4317;SDS011;2172;53.576;9.934;2023-07-31T11:28:03;3.07;;;1.70;;
4317;SDS011;2172;53.576;9.934;2023-07-31T11:30:33;1.50;;;1.20;;
4317;SDS011;2172;53.576;9.934;2023-07-31T11:33:01;1.40;;;1.10;;
4317;SDS011;2172;53.576;9.934;2023-07-31T11:35:30;1.50;;;1.10;;
4317;SDS011;2172;53.576;9.934;2023-07-31T11:37:59;1.30;;;1.00;;
4317;SDS011;2172;53.576;9.934;2023-07-31T11:40:27;1.87;;;1.20;;
4317;SDS011;2172;53.576;9.934;2023-07-31T11:42:56;4.53;;;1.23;;
4317;SDS011;2172;53.576;9.934;2023-07-31T11:45:27;2.53;;;1.13;;
4317;SDS011;2172;53.576;9.934;2023-07-31T11:47:56;2.47;;;1.13;;
4317;SDS011;2172;53.576;9.934;2023-07-31T11:50:23;1.20;;;1.07;;
4317;SDS011;2172;53.576;9.934;2023-07-31T11:52:53;1.40;;;0.93;;
4317;SDS011;2172;53.576;9.934;2023-07-31T11:55:24;1.33;;;0.80;;
4317;SDS011;2172;53.576;9.934;2023-07-31T11:57:51;2.70;;;0.80;;
4317;SDS011;2172;53.576;9.934;2023-07-31T12:00:21;1.10;;;0.60;;
4317;SDS011;2172;53.576;9.934;2023-07-31T12:02:49;1.10;;;0.60;;
4317;SDS011;2172;53.576;9.934;2023-07-31T12:05:18;1.47;;;0.70;;
4317;SDS011;2172;53.576;9.934;2023-07-31T12:07:47;1.60;;;0.90;;
4317;SDS011;2172;53.576;9.934;2023-07-31T12:10:25;1.70;;;0.70;;
4317;SDS011;2172;53.576;9.934;2023-07-31T12:12:57;1.10;;;0.70;;
4317;SDS011;2172;53.576;9.934;2023-07-31T12:15:29;2.17;;;1.10;;
4317;SDS011;2172;53.576;9.934;2023-07-31T12:18:03;1.10;;;0.80;;
4317;SDS011;2172;53.576;9.934;2023-07-31T12:20:33;1.10;;;0.70;;
4317;SDS011;2172;53.576;9.934;2023-07-31T12:23:01;2.03;;;1.07;;
4317;SDS011;2172;53.576;9.934;2023-07-31T12:25:30;1.80;;;0.93;;
4317;SDS011;2172;53.576;9.934;2023-07-31T12:27:58;1.30;;;0.80;;
4317;SDS011;2172;53.576;9.934;2023-07-31T12:30:31;1.20;;;0.77;;
4317;SDS011;2172;53.576;9.934;2023-07-31T12:33:04;1.50;;;1.00;;
4317;SDS011;2172;53.576;9.934;2023-07-31T12:35:37;2.70;;;0.73;;
4317;SDS011;2172;53.576;9.934;2023-07-31T12:38:07;2.40;;;0.90;;
4317;SDS011;2172;53.576;9.934;2023-07-31T12:40:36;1.60;;;0.93;;
4317;SDS011;2172;53.576;9.934;2023-07-31T12:43:04;2.00;;;0.93;;
4317;SDS011;2172;53.576;9.934;2023-07-31T12:45:32;1.30;;;0.80;;
4317;SDS011;2172;53.576;9.934;2023-07-31T12:48:00;1.37;;;0.80;;
4317;SDS011;2172;53.576;9.934;2023-07-31T12:50:28;1.50;;;1.23;;
4317;SDS011;2172;53.576;9.934;2023-07-31T12:52:57;2.43;;;0.90;;
4317;SDS011;2172;53.576;9.934;2023-07-31T12:55:25;1.40;;;0.90;;
4317;SDS011;2172;53.576;9.934;2023-07-31T12:57:53;3.00;;;1.00;;
4317;SDS011;2172;53.576;9.934;2023-07-31T13:00:22;2.33;;;1.20;;
4317;SDS011;2172;53.576;9.934;2023-07-31T13:02:52;2.57;;;1.30;;
4317;SDS011;2172;53.576;9.934;2023-07-31T13:05:20;1.67;;;1.57;;
4317;SDS011;2172;53.576;9.934;2023-07-31T13:07:48;2.60;;;1.77;;
4317;SDS011;2172;53.576;9.934;2023-07-31T13:10:17;1.50;;;1.40;;
4317;SDS011;2172;53.576;9.934;2023-07-31T13:12:44;3.23;;;2.00;;
4317;SDS011;2172;53.576;9.934;2023-07-31T13:15:12;2.30;;;1.57;;
4317;SDS011;2172;53.576;9.934;2023-07-31T13:17:40;2.57;;;1.70;;
4317;SDS011;2172;53.576;9.934;2023-07-31T13:20:08;2.03;;;1.83;;
4317;SDS011;2172;53.576;9.934;2023-07-31T13:22:35;3.90;;;2.20;;
4317;SDS011;2172;53.576;9.934;2023-07-31T13:25:04;2.40;;;2.00;;
4317;SDS011;2172;53.576;9.934;2023-07-31T13:27:33;2.53;;;2.33;;
4317;SDS011;2172;53.576;9.934;2023-07-31T13:30:01;2.50;;;2.10;;
4317;SDS011;2172;53.576;9.934;2023-07-31T13:32:29;2.50;;;2.30;;
4317;SDS011;2172;53.576;9.934;2023-07-31T13:34:57;4.07;;;2.17;;
4317;SDS011;2172;53.576;9.934;2023-07-31T13:37:24;2.50;;;2.30;;
4317;SDS011;2172;53.576;9.934;2023-07-31T13:40:10;2.70;;;2.50;;
4317;SDS011;2172;53.576;9.934;2023-07-31T13:42:39;2.80;;;2.10;;
4317;SDS011;2172;53.576;9.934;2023-07-31T13:45:07;2.40;;;2.20;;
4317;SDS011;2172;53.576;9.934;2023-07-31T13:47:35;2.40;;;2.10;;
4317;SDS011;2172;53.576;9.934;2023-07-31T13:50:03;2.80;;;2.57;;
4317;SDS011;2172;53.576;9.934;2023-07-31T13:52:31;3.60;;;2.30;;
4317;SDS011;2172;53.576;9.934;2023-07-31T13:54:59;2.70;;;2.50;;
4317;SDS011;2172;53.576;9.934;2023-07-31T13:57:26;2.40;;;2.20;;
4317;SDS011;2172;53.576;9.934;2023-07-31T13:59:55;2.80;;;2.37;;
4317;SDS011;2172;53.576;9.934;2023-07-31T14:02:23;2.63;;;2.43;;
4317;SDS011;2172;53.576;9.934;2023-07-31T14:04:51;3.00;;;2.43;;
4317;SDS011;2172;53.576;9.934;2023-07-31T14:07:18;2.40;;;2.20;;
4317;SDS011;2172;53.576;9.934;2023-07-31T14:09:46;2.43;;;2.17;;
4317;SDS011;2172;53.576;9.934;2023-07-31T14:12:13;2.50;;;2.00;;
4317;SDS011;2172;53.576;9.934;2023-07-31T14:14:41;2.63;;;2.30;;
4317;SDS011;2172;53.576;9.934;2023-07-31T14:17:09;4.33;;;2.30;;
4317;SDS011;2172;53.576;9.934;2023-07-31T14:19:37;3.10;;;2.50;;
4317;SDS011;2172;53.576;9.934;2023-07-31T14:22:04;5.43;;;2.30;;
4317;SDS011;2172;53.576;9.934;2023-07-31T14:24:32;5.50;;;2.47;;
4317;SDS011;2172;53.576;9.934;2023-07-31T14:27:00;3.70;;;2.80;;
4317;SDS011;2172;53.576;9.934;2023-07-31T14:29:27;5.07;;;2.43;;
4317;SDS011;2172;53.576;9.934;2023-07-31T14:31:55;2.00;;;1.80;;
4317;SDS011;2172;53.576;9.934;2023-07-31T14:34:24;2.63;;;1.60;;
4317;SDS011;2172;53.576;9.934;2023-07-31T14:36:51;4.23;;;2.43;;
4317;SDS011;2172;53.576;9.934;2023-07-31T14:39:19;2.53;;;2.30;;
4317;SDS011;2172;53.576;9.934;2023-07-31T14:41:46;2.73;;;2.27;;
4317;SDS011;2172;53.576;9.934;2023-07-31T14:44:14;5.23;;;2.23;;
4317;SDS011;2172;53.576;9.934;2023-07-31T14:46:42;2.43;;;1.43;;
4317;SDS011;2172;53.576;9.934;2023-07-31T14:49:10;1.37;;;1.00;;
4317;SDS011;2172;53.576;9.934;2023-07-31T14:51:38;3.73;;;1.63;;
4317;SDS011;2172;53.576;9.934;2023-07-31T14:54:06;3.00;;;1.40;;
4317;SDS011;2172;53.576;9.934;2023-07-31T14:56:34;2.47;;;0.87;;
4317;SDS011;2172;53.576;9.934;2023-07-31T14:59:01;1.90;;;1.20;;
4317;SDS011;2172;53.576;9.934;2023-07-31T15:01:29;5.07;;;1.00;;
4317;SDS011;2172;53.576;9.934;2023-07-31T15:03:56;2.27;;;0.90;;
4317;SDS011;2172;53.576;9.934;2023-07-31T15:06:24;1.80;;;0.90;;
4317;SDS011;2172;53.576;9.934;2023-07-31T15:08:53;3.50;;;2.90;;
4317;SDS011;2172;53.576;9.934;2023-07-31T15:11:20;2.73;;;0.90;;
4317;SDS011;2172;53.576;9.934;2023-07-31T15:13:48;1.37;;;1.20;;
4317;SDS011;2172;53.576;9.934;2023-07-31T15:16:15;2.47;;;1.77;;
4317;SDS011;2172;53.576;9.934;2023-07-31T15:18:43;1.70;;;1.60;;
4317;SDS011;2172;53.576;9.934;2023-07-31T15:21:10;2.10;;;1.90;;
4317;SDS011;2172;53.576;9.934;2023-07-31T15:23:38;2.80;;;2.37;;